Hlavní strana
METAR-TAF:

METAR-TAF

Letiště :

Brjansk, Rusko

zeměpisná šířka: 53-15N, zeměpisná délka: 034-19E, výška: 217 m

Aktuální stav počasí

Zpráva byla vytvořena před 41 minutami, v 01:00 UTC
Západní vítr 6 kt
Teplota 4°C
Vlhkost vzduchu 100%
Tlak 1011 hPa
Viditelnost 10 km a více
slabé mrholení

METAR: UUBP 090100Z AUTO 28003MPS 9999 -DZ NCD 04/04 Q1011

Čas: 04:41 (01:41 UTC)

Předpověď počasí

Zpráva byla vytvořena před 14 hodinami a 47 minutami, v 10:54 UTC
Předpověď platná od 08 v 12 UTC do 08 v 21 UTC
Severozápadní vítr 10 kt
Viditelnost: 6000 m
Oblačno až skoro zataženo ve výšce 1000 ft
Oblačno až skoro zataženo ve výšce 1300 ft, Cumulonimbus.
slabé dešťové přeháňky
Dočasný
od 08 v 12 UTC do 08 v 17 UTC
Viditelnost: 2100 m
Oblačno až skoro zataženo ve výšce 500 ft
Oblačno až skoro zataženo ve výšce 1100 ft, Cumulonimbus.
slabé dešťové přeháňky, kouřmo

TAF: UUBP 081054Z 0812/0821 32005MPS 6000 -SHRA BKN010 BKN013CB TEMPO 0812/0817 2100 -SHRA BR BKN005 BKN011CB

Stav a předpovědi počasí z více než 4 000 letišť (zprávy METAR a TAF).

Červené a žluté tečky na mapě představují dostupné meteorologické stanice.

Když kurzor umístíte na tečku, zobrazí se název stanice.

Pak kliknutím zobrazíte stav a předpověď počasí.

Chcete-li změnit mapu, kliknutím na zelené tlačítko se znaménkem +mapu přiblížíte, kliknutím na zelené tlačítko se znaménkem – mapu oddálíte a kliknutím na zelené šipky přejdete na sousední mapy.


METAR-TAF: